HTZA/ZNZ METAR and TAF weather

Enter ICAO airport designator
Station Type Date Time Source
HTZA METAR 2020/03/28 20:00 UTC NOAA

HTZA 282000Z 00000KT 9999 FEW016 28/25 Q1012 NOSIG


Station Type Date Time Source
HTZA Decoded METAR 2020/03/28 20:00 UTC NOAA

Zanzibar / Kisauni, Tanzania (HTZA) 06-13S 039-13E 15M
Mar 28, 2020 - 04:00 PM EDT / 2020.03.28 2000 UTC
Wind: Calm:0
Visibility: greater than 7 mile(s):0
Sky conditions: mostly clear
Temperature: 82 F (28 C)
Dew Point: 77 F (25 C)
Relative Humidity: 83%
Pressure (altimeter): 29.88 in. Hg (1012 hPa)
ob: HTZA 282000Z 00000KT 9999 FEW016 28/25 Q1012 NOSIG
cycle: 20

Station Type Date Time Source
HTZA TAF 2020/03/28 12:54 UTC NOAA

TAF HTZA 281100Z 2812/2912 07005KT 9999 FEW024 BKN090
BECMG 2903/2905 BKN016 FEW018CB BKN080

Example: see airport list